sensor_id;sensor_type;location;lat;lon;timestamp;P1;durP1;ratioP1;P2;durP2;ratioP2
69854;SDS011;57146;48.140;16.304;2023-03-01T00:01:55;29.55;;;9.68;;
69854;SDS011;57146;48.140;16.304;2023-03-01T00:04:22;24.23;;;8.63;;
69854;SDS011;57146;48.140;16.304;2023-03-01T00:06:49;22.17;;;7.78;;
69854;SDS011;57146;48.140;16.304;2023-03-01T00:09:20;22.60;;;7.50;;
69854;SDS011;57146;48.140;16.304;2023-03-01T00:11:48;23.60;;;7.97;;
69854;SDS011;57146;48.140;16.304;2023-03-01T00:15:04;18.73;;;6.88;;
69854;SDS011;57146;48.140;16.304;2023-03-01T00:17:34;21.08;;;7.38;;
69854;SDS011;57146;48.140;16.304;2023-03-01T00:20:01;22.08;;;7.88;;
69854;SDS011;57146;48.140;16.304;2023-03-01T00:22:27;24.38;;;8.25;;
69854;SDS011;57146;48.140;16.304;2023-03-01T00:24:55;23.53;;;8.10;;
69854;SDS011;57146;48.140;16.304;2023-03-01T00:27:22;21.60;;;7.28;;
69854;SDS011;57146;48.140;16.304;2023-03-01T00:29:50;22.83;;;7.68;;
69854;SDS011;57146;48.140;16.304;2023-03-01T00:32:20;18.65;;;6.60;;
69854;SDS011;57146;48.140;16.304;2023-03-01T00:34:47;21.35;;;7.25;;
69854;SDS011;57146;48.140;16.304;2023-03-01T00:37:16;20.67;;;7.27;;
69854;SDS011;57146;48.140;16.304;2023-03-01T00:39:43;18.30;;;7.38;;
69854;SDS011;57146;48.140;16.304;2023-03-01T00:42:10;19.30;;;6.90;;
69854;SDS011;57146;48.140;16.304;2023-03-01T00:44:37;24.20;;;7.05;;
69854;SDS011;57146;48.140;16.304;2023-03-01T00:47:04;21.10;;;7.18;;
69854;SDS011;57146;48.140;16.304;2023-03-01T00:49:31;20.40;;;7.37;;
69854;SDS011;57146;48.140;16.304;2023-03-01T00:51:58;21.02;;;7.47;;
69854;SDS011;57146;48.140;16.304;2023-03-01T00:54:29;22.45;;;7.13;;
69854;SDS011;57146;48.140;16.304;2023-03-01T00:56:58;21.27;;;7.88;;
69854;SDS011;57146;48.140;16.304;2023-03-01T00:59:27;20.20;;;7.55;;
69854;SDS011;57146;48.140;16.304;2023-03-01T01:01:54;21.20;;;7.70;;
69854;SDS011;57146;48.140;16.304;2023-03-01T01:04:21;19.65;;;7.18;;
69854;SDS011;57146;48.140;16.304;2023-03-01T01:06:49;19.88;;;7.00;;
69854;SDS011;57146;48.140;16.304;2023-03-01T01:09:16;20.08;;;7.30;;
69854;SDS011;57146;48.140;16.304;2023-03-01T01:11:44;21.98;;;7.57;;
69854;SDS011;57146;48.140;16.304;2023-03-01T01:14:17;19.43;;;7.10;;
69854;SDS011;57146;48.140;16.304;2023-03-01T01:16:44;22.77;;;7.30;;
69854;SDS011;57146;48.140;16.304;2023-03-01T01:19:13;21.88;;;6.93;;
69854;SDS011;57146;48.140;16.304;2023-03-01T01:21:40;22.30;;;8.02;;
69854;SDS011;57146;48.140;16.304;2023-03-01T01:24:09;22.80;;;7.25;;
69854;SDS011;57146;48.140;16.304;2023-03-01T01:26:36;21.87;;;7.30;;
69854;SDS011;57146;48.140;16.304;2023-03-01T01:29:05;20.02;;;7.13;;
69854;SDS011;57146;48.140;16.304;2023-03-01T01:31:34;21.50;;;7.68;;
69854;SDS011;57146;48.140;16.304;2023-03-01T01:34:03;20.58;;;7.35;;
69854;SDS011;57146;48.140;16.304;2023-03-01T01:36:32;20.00;;;7.03;;
69854;SDS011;57146;48.140;16.304;2023-03-01T01:39:00;21.07;;;7.17;;
69854;SDS011;57146;48.140;16.304;2023-03-01T01:41:27;22.75;;;7.70;;
69854;SDS011;57146;48.140;16.304;2023-03-01T01:49:43;19.42;;;6.97;;
69854;SDS011;57146;48.140;16.304;2023-03-01T01:52:16;20.80;;;7.33;;
69854;SDS011;57146;48.140;16.304;2023-03-01T01:57:33;18.60;;;7.18;;
69854;SDS011;57146;48.140;16.304;2023-03-01T02:00:04;21.08;;;7.10;;
69854;SDS011;57146;48.140;16.304;2023-03-01T02:02:38;20.55;;;7.05;;
69854;SDS011;57146;48.140;16.304;2023-03-01T02:05:16;22.63;;;8.20;;
69854;SDS011;57146;48.140;16.304;2023-03-01T02:07:52;20.55;;;7.22;;
69854;SDS011;57146;48.140;16.304;2023-03-01T02:10:22;22.02;;;7.65;;
69854;SDS011;57146;48.140;16.304;2023-03-01T02:12:51;23.80;;;7.78;;
69854;SDS011;57146;48.140;16.304;2023-03-01T02:15:44;20.52;;;6.78;;
69854;SDS011;57146;48.140;16.304;2023-03-01T02:18:14;22.97;;;7.70;;
69854;SDS011;57146;48.140;16.304;2023-03-01T02:20:49;20.58;;;7.63;;
69854;SDS011;57146;48.140;16.304;2023-03-01T02:23:41;22.65;;;7.97;;
69854;SDS011;57146;48.140;16.304;2023-03-01T02:26:11;22.75;;;7.72;;
69854;SDS011;57146;48.140;16.304;2023-03-01T02:28:52;25.00;;;8.52;;
69854;SDS011;57146;48.140;16.304;2023-03-01T02:31:20;23.77;;;7.87;;
69854;SDS011;57146;48.140;16.304;2023-03-01T02:33:47;24.60;;;8.20;;
69854;SDS011;57146;48.140;16.304;2023-03-01T02:36:58;22.70;;;7.95;;
69854;SDS011;57146;48.140;16.304;2023-03-01T02:39:29;21.13;;;7.15;;
69854;SDS011;57146;48.140;16.304;2023-03-01T02:42:01;21.98;;;7.82;;
69854;SDS011;57146;48.140;16.304;2023-03-01T02:44:30;19.73;;;7.80;;
69854;SDS011;57146;48.140;16.304;2023-03-01T02:46:57;23.73;;;7.57;;
69854;SDS011;57146;48.140;16.304;2023-03-01T02:49:30;20.45;;;7.28;;
69854;SDS011;57146;48.140;16.304;2023-03-01T02:54:42;22.45;;;7.68;;
69854;SDS011;57146;48.140;16.304;2023-03-01T02:57:15;25.87;;;8.50;;
69854;SDS011;57146;48.140;16.304;2023-03-01T02:59:44;22.58;;;7.55;;
69854;SDS011;57146;48.140;16.304;2023-03-01T03:02:19;22.10;;;8.05;;
69854;SDS011;57146;48.140;16.304;2023-03-01T03:04:52;25.10;;;8.32;;
69854;SDS011;57146;48.140;16.304;2023-03-01T03:07:19;22.55;;;7.75;;
69854;SDS011;57146;48.140;16.304;2023-03-01T03:09:48;22.10;;;7.73;;
69854;SDS011;57146;48.140;16.304;2023-03-01T03:12:15;21.95;;;7.88;;
69854;SDS011;57146;48.140;16.304;2023-03-01T03:14:42;24.15;;;8.18;;
69854;SDS011;57146;48.140;16.304;2023-03-01T03:17:09;25.02;;;8.45;;
69854;SDS011;57146;48.140;16.304;2023-03-01T03:19:36;23.17;;;7.35;;
69854;SDS011;57146;48.140;16.304;2023-03-01T03:22:03;23.17;;;8.50;;
69854;SDS011;57146;48.140;16.304;2023-03-01T03:24:31;23.55;;;8.50;;
69854;SDS011;57146;48.140;16.304;2023-03-01T03:26:58;25.20;;;8.35;;
69854;SDS011;57146;48.140;16.304;2023-03-01T03:29:25;25.65;;;8.85;;
69854;SDS011;57146;48.140;16.304;2023-03-01T03:31:52;25.13;;;8.50;;
69854;SDS011;57146;48.140;16.304;2023-03-01T03:34:19;25.33;;;8.37;;
69854;SDS011;57146;48.140;16.304;2023-03-01T03:36:54;25.08;;;8.90;;
69854;SDS011;57146;48.140;16.304;2023-03-01T03:39:26;24.23;;;8.82;;
69854;SDS011;57146;48.140;16.304;2023-03-01T03:41:54;21.90;;;8.07;;
69854;SDS011;57146;48.140;16.304;2023-03-01T03:44:21;24.45;;;8.93;;
69854;SDS011;57146;48.140;16.304;2023-03-01T03:46:51;23.17;;;8.20;;
69854;SDS011;57146;48.140;16.304;2023-03-01T03:49:18;25.02;;;8.95;;
69854;SDS011;57146;48.140;16.304;2023-03-01T03:51:45;24.00;;;9.30;;
69854;SDS011;57146;48.140;16.304;2023-03-01T03:54:12;26.15;;;9.07;;
69854;SDS011;57146;48.140;16.304;2023-03-01T03:56:39;27.60;;;9.77;;
69854;SDS011;57146;48.140;16.304;2023-03-01T03:59:06;26.83;;;9.13;;
69854;SDS011;57146;48.140;16.304;2023-03-01T04:01:33;26.15;;;10.05;;
69854;SDS011;57146;48.140;16.304;2023-03-01T04:04:00;28.40;;;9.98;;
69854;SDS011;57146;48.140;16.304;2023-03-01T04:06:27;27.38;;;9.65;;
69854;SDS011;57146;48.140;16.304;2023-03-01T04:08:56;29.77;;;10.38;;
69854;SDS011;57146;48.140;16.304;2023-03-01T04:11:23;29.70;;;10.17;;
69854;SDS011;57146;48.140;16.304;2023-03-01T04:13:50;28.77;;;9.90;;
69854;SDS011;57146;48.140;16.304;2023-03-01T04:16:20;30.23;;;10.32;;
69854;SDS011;57146;48.140;16.304;2023-03-01T04:18:47;28.95;;;10.80;;
69854;SDS011;57146;48.140;16.304;2023-03-01T04:21:14;27.10;;;10.38;;
69854;SDS011;57146;48.140;16.304;2023-03-01T04:23:42;26.23;;;9.43;;
69854;SDS011;57146;48.140;16.304;2023-03-01T04:26:08;27.88;;;10.43;;
69854;SDS011;57146;48.140;16.304;2023-03-01T04:28:37;29.73;;;10.35;;
69854;SDS011;57146;48.140;16.304;2023-03-01T04:31:08;29.92;;;10.43;;
69854;SDS011;57146;48.140;16.304;2023-03-01T04:33:37;32.03;;;10.70;;
69854;SDS011;57146;48.140;16.304;2023-03-01T04:36:09;28.03;;;10.00;;
69854;SDS011;57146;48.140;16.304;2023-03-01T04:38:38;28.77;;;10.68;;
69854;SDS011;57146;48.140;16.304;2023-03-01T04:41:07;34.10;;;10.35;;
69854;SDS011;57146;48.140;16.304;2023-03-01T04:43:36;31.65;;;10.48;;
69854;SDS011;57146;48.140;16.304;2023-03-01T04:46:04;31.65;;;10.85;;
69854;SDS011;57146;48.140;16.304;2023-03-01T04:48:36;31.50;;;10.50;;
69854;SDS011;57146;48.140;16.304;2023-03-01T04:51:06;29.00;;;10.10;;
69854;SDS011;57146;48.140;16.304;2023-03-01T04:53:35;29.73;;;10.52;;
69854;SDS011;57146;48.140;16.304;2023-03-01T04:56:02;29.73;;;10.50;;
69854;SDS011;57146;48.140;16.304;2023-03-01T04:58:30;29.33;;;10.77;;
69854;SDS011;57146;48.140;16.304;2023-03-01T05:00:57;30.47;;;10.97;;
69854;SDS011;57146;48.140;16.304;2023-03-01T05:03:24;31.65;;;11.38;;
69854;SDS011;57146;48.140;16.304;2023-03-01T05:05:52;27.80;;;10.88;;
69854;SDS011;57146;48.140;16.304;2023-03-01T05:08:19;31.58;;;10.95;;
69854;SDS011;57146;48.140;16.304;2023-03-01T05:10:50;33.38;;;11.45;;
69854;SDS011;57146;48.140;16.304;2023-03-01T05:13:19;32.60;;;11.57;;
69854;SDS011;57146;48.140;16.304;2023-03-01T05:15:48;32.90;;;10.95;;
69854;SDS011;57146;48.140;16.304;2023-03-01T05:18:20;34.05;;;11.25;;
69854;SDS011;57146;48.140;16.304;2023-03-01T05:20:47;32.17;;;11.73;;
69854;SDS011;57146;48.140;16.304;2023-03-01T05:23:14;29.48;;;11.32;;
69854;SDS011;57146;48.140;16.304;2023-03-01T05:25:41;32.40;;;11.03;;
69854;SDS011;57146;48.140;16.304;2023-03-01T05:28:11;31.88;;;11.40;;
69854;SDS011;57146;48.140;16.304;2023-03-01T05:30:38;31.77;;;11.55;;
69854;SDS011;57146;48.140;16.304;2023-03-01T05:33:06;29.67;;;10.85;;
69854;SDS011;57146;48.140;16.304;2023-03-01T05:35:33;29.65;;;10.35;;
69854;SDS011;57146;48.140;16.304;2023-03-01T05:38:00;29.43;;;10.37;;
69854;SDS011;57146;48.140;16.304;2023-03-01T05:40:27;28.48;;;10.07;;
69854;SDS011;57146;48.140;16.304;2023-03-01T05:42:55;29.58;;;11.15;;
69854;SDS011;57146;48.140;16.304;2023-03-01T05:45:24;30.75;;;11.00;;
69854;SDS011;57146;48.140;16.304;2023-03-01T05:47:52;29.75;;;11.05;;
69854;SDS011;57146;48.140;16.304;2023-03-01T05:50:21;27.73;;;10.50;;
69854;SDS011;57146;48.140;16.304;2023-03-01T05:52:52;28.25;;;10.50;;
69854;SDS011;57146;48.140;16.304;2023-03-01T05:55:27;29.50;;;11.07;;
69854;SDS011;57146;48.140;16.304;2023-03-01T05:57:57;32.80;;;11.27;;
69854;SDS011;57146;48.140;16.304;2023-03-01T06:00:25;30.85;;;11.38;;
69854;SDS011;57146;48.140;16.304;2023-03-01T06:02:53;30.40;;;11.67;;
69854;SDS011;57146;48.140;16.304;2023-03-01T06:05:21;34.15;;;11.93;;
69854;SDS011;57146;48.140;16.304;2023-03-01T06:07:49;31.40;;;11.68;;
69854;SDS011;57146;48.140;16.304;2023-03-01T06:10:16;36.15;;;11.95;;
69854;SDS011;57146;48.140;16.304;2023-03-01T06:12:46;27.55;;;10.43;;
69854;SDS011;57146;48.140;16.304;2023-03-01T06:15:15;31.40;;;11.37;;
69854;SDS011;57146;48.140;16.304;2023-03-01T06:17:44;30.77;;;11.48;;
69854;SDS011;57146;48.140;16.304;2023-03-01T06:22:40;30.10;;;11.88;;
69854;SDS011;57146;48.140;16.304;2023-03-01T06:25:09;29.92;;;11.13;;
69854;SDS011;57146;48.140;16.304;2023-03-01T06:27:36;31.13;;;10.37;;
69854;SDS011;57146;48.140;16.304;2023-03-01T06:30:05;29.83;;;10.90;;
69854;SDS011;57146;48.140;16.304;2023-03-01T06:32:33;31.60;;;11.30;;
69854;SDS011;57146;48.140;16.304;2023-03-01T06:34:59;32.67;;;11.70;;
69854;SDS011;57146;48.140;16.304;2023-03-01T06:37:26;34.50;;;12.32;;
69854;SDS011;57146;48.140;16.304;2023-03-01T06:39:53;30.53;;;11.80;;
69854;SDS011;57146;48.140;16.304;2023-03-01T06:42:20;34.95;;;11.85;;
69854;SDS011;57146;48.140;16.304;2023-03-01T06:44:48;32.95;;;12.13;;
69854;SDS011;57146;48.140;16.304;2023-03-01T06:47:39;34.15;;;12.20;;
69854;SDS011;57146;48.140;16.304;2023-03-01T06:50:30;34.78;;;11.50;;
69854;SDS011;57146;48.140;16.304;2023-03-01T06:53:22;31.77;;;11.60;;
69854;SDS011;57146;48.140;16.304;2023-03-01T06:55:54;33.20;;;11.93;;
69854;SDS011;57146;48.140;16.304;2023-03-01T06:58:25;32.20;;;12.30;;
69854;SDS011;57146;48.140;16.304;2023-03-01T07:00:53;32.72;;;12.15;;
69854;SDS011;57146;48.140;16.304;2023-03-01T07:03:20;33.45;;;12.43;;
69854;SDS011;57146;48.140;16.304;2023-03-01T07:05:50;33.97;;;12.27;;
69854;SDS011;57146;48.140;16.304;2023-03-01T07:08:17;31.98;;;11.48;;
69854;SDS011;57146;48.140;16.304;2023-03-01T07:10:45;37.83;;;13.20;;
69854;SDS011;57146;48.140;16.304;2023-03-01T07:13:11;33.95;;;12.45;;
69854;SDS011;57146;48.140;16.304;2023-03-01T07:15:42;35.55;;;12.73;;
69854;SDS011;57146;48.140;16.304;2023-03-01T07:18:09;30.37;;;12.33;;
69854;SDS011;57146;48.140;16.304;2023-03-01T07:20:36;32.80;;;12.18;;
69854;SDS011;57146;48.140;16.304;2023-03-01T07:23:05;33.42;;;12.50;;
69854;SDS011;57146;48.140;16.304;2023-03-01T07:25:32;37.97;;;13.52;;
69854;SDS011;57146;48.140;16.304;2023-03-01T07:28:00;34.13;;;12.20;;
69854;SDS011;57146;48.140;16.304;2023-03-01T07:30:28;36.37;;;13.07;;
69854;SDS011;57146;48.140;16.304;2023-03-01T07:33:21;37.45;;;14.27;;
69854;SDS011;57146;48.140;16.304;2023-03-01T07:35:55;37.75;;;14.07;;
69854;SDS011;57146;48.140;16.304;2023-03-01T07:38:23;42.28;;;14.50;;
69854;SDS011;57146;48.140;16.304;2023-03-01T07:40:51;40.22;;;13.95;;
69854;SDS011;57146;48.140;16.304;2023-03-01T07:43:19;38.87;;;14.27;;
69854;SDS011;57146;48.140;16.304;2023-03-01T07:45:46;35.15;;;13.25;;
69854;SDS011;57146;48.140;16.304;2023-03-01T07:48:13;38.83;;;14.43;;
69854;SDS011;57146;48.140;16.304;2023-03-01T07:50:40;36.70;;;13.07;;
69854;SDS011;57146;48.140;16.304;2023-03-01T07:53:07;33.17;;;12.75;;
69854;SDS011;57146;48.140;16.304;2023-03-01T07:55:35;35.13;;;12.97;;
69854;SDS011;57146;48.140;16.304;2023-03-01T07:58:03;34.75;;;13.02;;
69854;SDS011;57146;48.140;16.304;2023-03-01T08:00:30;36.10;;;13.40;;
69854;SDS011;57146;48.140;16.304;2023-03-01T08:03:00;34.60;;;12.80;;
69854;SDS011;57146;48.140;16.304;2023-03-01T08:05:28;37.88;;;13.45;;
69854;SDS011;57146;48.140;16.304;2023-03-01T08:07:58;39.70;;;13.23;;
69854;SDS011;57146;48.140;16.304;2023-03-01T08:10:52;34.78;;;12.70;;
69854;SDS011;57146;48.140;16.304;2023-03-01T08:13:22;33.90;;;12.60;;
69854;SDS011;57146;48.140;16.304;2023-03-01T08:15:49;33.75;;;13.02;;
69854;SDS011;57146;48.140;16.304;2023-03-01T08:18:17;39.20;;;13.52;;
69854;SDS011;57146;48.140;16.304;2023-03-01T08:20:45;42.53;;;14.20;;
69854;SDS011;57146;48.140;16.304;2023-03-01T08:23:15;38.92;;;13.10;;
69854;SDS011;57146;48.140;16.304;2023-03-01T08:25:42;40.78;;;14.43;;
69854;SDS011;57146;48.140;16.304;2023-03-01T08:28:09;34.90;;;12.60;;
69854;SDS011;57146;48.140;16.304;2023-03-01T08:30:36;33.30;;;12.20;;
69854;SDS011;57146;48.140;16.304;2023-03-01T08:33:03;33.70;;;12.57;;
69854;SDS011;57146;48.140;16.304;2023-03-01T08:35:30;36.70;;;12.75;;
69854;SDS011;57146;48.140;16.304;2023-03-01T08:37:57;35.22;;;12.88;;
69854;SDS011;57146;48.140;16.304;2023-03-01T08:40:23;33.53;;;12.70;;
69854;SDS011;57146;48.140;16.304;2023-03-01T08:42:50;36.47;;;13.15;;
69854;SDS011;57146;48.140;16.304;2023-03-01T08:45:19;41.73;;;13.53;;
69854;SDS011;57146;48.140;16.304;2023-03-01T08:47:47;41.90;;;14.15;;
69854;SDS011;57146;48.140;16.304;2023-03-01T08:50:17;44.15;;;14.23;;
69854;SDS011;57146;48.140;16.304;2023-03-01T08:52:44;34.20;;;12.43;;
69854;SDS011;57146;48.140;16.304;2023-03-01T08:55:11;35.33;;;12.57;;
69854;SDS011;57146;48.140;16.304;2023-03-01T08:57:38;35.80;;;13.07;;
69854;SDS011;57146;48.140;16.304;2023-03-01T09:00:05;33.58;;;12.73;;
69854;SDS011;57146;48.140;16.304;2023-03-01T09:02:32;45.60;;;14.18;;
69854;SDS011;57146;48.140;16.304;2023-03-01T09:05:00;34.72;;;12.80;;
69854;SDS011;57146;48.140;16.304;2023-03-01T09:07:27;35.83;;;12.63;;
69854;SDS011;57146;48.140;16.304;2023-03-01T09:09:54;34.87;;;12.87;;
69854;SDS011;57146;48.140;16.304;2023-03-01T09:12:22;35.45;;;13.30;;
69854;SDS011;57146;48.140;16.304;2023-03-01T09:14:49;48.72;;;14.10;;
69854;SDS011;57146;48.140;16.304;2023-03-01T09:17:16;38.85;;;14.05;;
69854;SDS011;57146;48.140;16.304;2023-03-01T09:19:43;38.10;;;13.50;;
69854;SDS011;57146;48.140;16.304;2023-03-01T09:22:34;36.23;;;13.40;;
69854;SDS011;57146;48.140;16.304;2023-03-01T09:25:01;39.25;;;12.65;;
69854;SDS011;57146;48.140;16.304;2023-03-01T09:27:29;40.28;;;13.80;;
69854;SDS011;57146;48.140;16.304;2023-03-01T09:29:56;33.70;;;11.57;;
69854;SDS011;57146;48.140;16.304;2023-03-01T09:32:23;31.33;;;10.80;;
69854;SDS011;57146;48.140;16.304;2023-03-01T09:34:49;28.80;;;10.60;;
69854;SDS011;57146;48.140;16.304;2023-03-01T09:37:16;40.63;;;14.10;;
69854;SDS011;57146;48.140;16.304;2023-03-01T09:39:44;32.53;;;12.23;;
69854;SDS011;57146;48.140;16.304;2023-03-01T09:42:11;30.20;;;11.75;;
69854;SDS011;57146;48.140;16.304;2023-03-01T09:47:24;26.57;;;9.83;;
69854;SDS011;57146;48.140;16.304;2023-03-01T09:50:19;24.58;;;9.50;;
69854;SDS011;57146;48.140;16.304;2023-03-01T09:53:00;27.67;;;10.40;;
69854;SDS011;57146;48.140;16.304;2023-03-01T09:56:17;25.02;;;9.05;;
69854;SDS011;57146;48.140;16.304;2023-03-01T10:01:44;26.63;;;10.40;;
69854;SDS011;57146;48.140;16.304;2023-03-01T10:09:37;22.33;;;8.77;;
69854;SDS011;57146;48.140;16.304;2023-03-01T10:12:40;24.60;;;8.98;;
69854;SDS011;57146;48.140;16.304;2023-03-01T10:15:05;25.53;;;9.70;;
69854;SDS011;57146;48.140;16.304;2023-03-01T10:17:37;23.45;;;9.32;;
69854;SDS011;57146;48.140;16.304;2023-03-01T10:20:16;23.58;;;9.30;;
69854;SDS011;57146;48.140;16.304;2023-03-01T10:22:45;23.67;;;9.23;;
69854;SDS011;57146;48.140;16.304;2023-03-01T10:25:14;23.30;;;8.93;;
69854;SDS011;57146;48.140;16.304;2023-03-01T10:27:49;21.73;;;8.77;;
69854;SDS011;57146;48.140;16.304;2023-03-01T10:32:47;25.02;;;9.85;;
69854;SDS011;57146;48.140;16.304;2023-03-01T10:35:18;21.92;;;9.30;;
69854;SDS011;57146;48.140;16.304;2023-03-01T10:37:57;23.13;;;9.55;;
69854;SDS011;57146;48.140;16.304;2023-03-01T10:40:31;23.67;;;8.93;;
69854;SDS011;57146;48.140;16.304;2023-03-01T10:43:01;23.55;;;9.38;;
69854;SDS011;57146;48.140;16.304;2023-03-01T10:45:32;22.55;;;8.73;;
69854;SDS011;57146;48.140;16.304;2023-03-01T10:48:05;22.23;;;9.13;;
69854;SDS011;57146;48.140;16.304;2023-03-01T10:50:33;22.35;;;8.63;;
69854;SDS011;57146;48.140;16.304;2023-03-01T10:53:04;25.07;;;9.37;;
69854;SDS011;57146;48.140;16.304;2023-03-01T10:55:33;24.20;;;9.25;;
69854;SDS011;57146;48.140;16.304;2023-03-01T11:00:57;31.85;;;9.93;;
69854;SDS011;57146;48.140;16.304;2023-03-01T11:13:51;23.83;;;9.68;;
69854;SDS011;57146;48.140;16.304;2023-03-01T11:16:42;24.85;;;9.27;;
69854;SDS011;57146;48.140;16.304;2023-03-01T11:21:50;19.85;;;7.70;;
69854;SDS011;57146;48.140;16.304;2023-03-01T11:27:35;22.35;;;9.02;;
69854;SDS011;57146;48.140;16.304;2023-03-01T11:33:31;24.33;;;9.13;;
69854;SDS011;57146;48.140;16.304;2023-03-01T11:36:06;19.45;;;8.10;;
69854;SDS011;57146;48.140;16.304;2023-03-01T11:38:42;18.60;;;7.35;;
69854;SDS011;57146;48.140;16.304;2023-03-01T11:41:18;19.40;;;7.75;;
69854;SDS011;57146;48.140;16.304;2023-03-01T11:44:30;22.77;;;8.60;;
69854;SDS011;57146;48.140;16.304;2023-03-01T11:47:03;23.80;;;8.70;;
69854;SDS011;57146;48.140;16.304;2023-03-01T11:53:01;20.65;;;8.63;;
69854;SDS011;57146;48.140;16.304;2023-03-01T12:09:53;20.88;;;7.97;;
69854;SDS011;57146;48.140;16.304;2023-03-01T12:29:47;18.67;;;7.70;;
69854;SDS011;57146;48.140;16.304;2023-03-01T12:35:29;18.02;;;7.20;;
69854;SDS011;57146;48.140;16.304;2023-03-01T12:38:31;16.95;;;6.93;;
69854;SDS011;57146;48.140;16.304;2023-03-01T12:41:16;21.60;;;7.57;;
69854;SDS011;57146;48.140;16.304;2023-03-01T12:44:12;20.47;;;7.80;;
69854;SDS011;57146;48.140;16.304;2023-03-01T12:50:03;20.45;;;7.82;;
69854;SDS011;57146;48.140;16.304;2023-03-01T12:52:43;19.48;;;7.97;;
69854;SDS011;57146;48.140;16.304;2023-03-01T12:55:36;20.75;;;8.13;;
69854;SDS011;57146;48.140;16.304;2023-03-01T12:58:15;21.23;;;8.30;;
69854;SDS011;57146;48.140;16.304;2023-03-01T13:04:04;21.30;;;8.63;;
69854;SDS011;57146;48.140;16.304;2023-03-01T13:09:51;21.02;;;8.00;;
69854;SDS011;57146;48.140;16.304;2023-03-01T13:17:50;20.45;;;8.13;;
69854;SDS011;57146;48.140;16.304;2023-03-01T13:21:06;19.30;;;7.57;;
69854;SDS011;57146;48.140;16.304;2023-03-01T13:38:59;19.07;;;7.77;;
69854;SDS011;57146;48.140;16.304;2023-03-01T13:42:25;18.58;;;7.90;;
69854;SDS011;57146;48.140;16.304;2023-03-01T13:44:36;19.27;;;7.70;;
69854;SDS011;57146;48.140;16.304;2023-03-01T13:55:38;18.85;;;7.60;;
69854;SDS011;57146;48.140;16.304;2023-03-01T13:58:19;20.08;;;8.50;;
69854;SDS011;57146;48.140;16.304;2023-03-01T14:01:20;21.15;;;7.78;;
69854;SDS011;57146;48.140;16.304;2023-03-01T14:04:47;19.08;;;7.88;;
69854;SDS011;57146;48.140;16.304;2023-03-01T14:07:54;19.70;;;7.57;;
69854;SDS011;57146;48.140;16.304;2023-03-01T14:10:21;21.75;;;8.63;;
69854;SDS011;57146;48.140;16.304;2023-03-01T14:12:52;22.77;;;8.13;;
69854;SDS011;57146;48.140;16.304;2023-03-01T14:18:49;18.50;;;7.55;;
69854;SDS011;57146;48.140;16.304;2023-03-01T14:21:32;19.07;;;7.60;;
69854;SDS011;57146;48.140;16.304;2023-03-01T14:23:59;19.65;;;7.80;;
69854;SDS011;57146;48.140;16.304;2023-03-01T14:26:27;17.23;;;7.18;;
69854;SDS011;57146;48.140;16.304;2023-03-01T14:28:53;19.67;;;7.50;;
69854;SDS011;57146;48.140;16.304;2023-03-01T14:31:31;17.67;;;7.07;;
69854;SDS011;57146;48.140;16.304;2023-03-01T14:34:19;18.63;;;6.90;;
69854;SDS011;57146;48.140;16.304;2023-03-01T14:36:49;18.25;;;7.38;;
69854;SDS011;57146;48.140;16.304;2023-03-01T14:39:18;18.65;;;7.10;;
69854;SDS011;57146;48.140;16.304;2023-03-01T14:41:50;20.55;;;7.05;;
69854;SDS011;57146;48.140;16.304;2023-03-01T14:44:21;16.92;;;6.88;;
69854;SDS011;57146;48.140;16.304;2023-03-01T14:46:54;18.37;;;7.03;;
69854;SDS011;57146;48.140;16.304;2023-03-01T14:49:29;16.70;;;6.95;;
69854;SDS011;57146;48.140;16.304;2023-03-01T14:52:01;17.42;;;7.30;;
69854;SDS011;57146;48.140;16.304;2023-03-01T14:54:41;19.25;;;7.75;;
69854;SDS011;57146;48.140;16.304;2023-03-01T14:57:21;19.25;;;6.95;;
69854;SDS011;57146;48.140;16.304;2023-03-01T14:59:53;18.23;;;7.30;;
69854;SDS011;57146;48.140;16.304;2023-03-01T15:02:50;18.10;;;6.63;;
69854;SDS011;57146;48.140;16.304;2023-03-01T15:05:22;18.70;;;7.05;;
69854;SDS011;57146;48.140;16.304;2023-03-01T15:08:01;16.80;;;6.72;;
69854;SDS011;57146;48.140;16.304;2023-03-01T15:10:31;17.30;;;6.95;;
69854;SDS011;57146;48.140;16.304;2023-03-01T15:13:12;17.27;;;6.70;;
69854;SDS011;57146;48.140;16.304;2023-03-01T15:15:41;14.65;;;6.00;;
69854;SDS011;57146;48.140;16.304;2023-03-01T15:18:14;15.02;;;5.97;;
69854;SDS011;57146;48.140;16.304;2023-03-01T15:20:43;16.58;;;7.20;;
69854;SDS011;57146;48.140;16.304;2023-03-01T15:23:21;21.50;;;7.90;;
69854;SDS011;57146;48.140;16.304;2023-03-01T15:25:51;18.40;;;7.63;;
69854;SDS011;57146;48.140;16.304;2023-03-01T15:28:19;20.25;;;7.75;;
69854;SDS011;57146;48.140;16.304;2023-03-01T15:31:02;19.05;;;8.07;;
69854;SDS011;57146;48.140;16.304;2023-03-01T15:33:41;20.73;;;8.38;;
69854;SDS011;57146;48.140;16.304;2023-03-01T15:39:29;23.83;;;8.80;;
69854;SDS011;57146;48.140;16.304;2023-03-01T15:47:48;19.17;;;8.60;;
69854;SDS011;57146;48.140;16.304;2023-03-01T15:52:51;18.73;;;8.57;;
69854;SDS011;57146;48.140;16.304;2023-03-01T15:55:21;22.40;;;9.38;;
69854;SDS011;57146;48.140;16.304;2023-03-01T15:57:50;24.88;;;9.52;;
69854;SDS011;57146;48.140;16.304;2023-03-01T16:00:25;19.98;;;9.18;;
69854;SDS011;57146;48.140;16.304;2023-03-01T16:02:53;20.08;;;8.63;;
69854;SDS011;57146;48.140;16.304;2023-03-01T16:05:27;21.53;;;9.40;;
69854;SDS011;57146;48.140;16.304;2023-03-01T16:07:55;20.20;;;9.13;;
69854;SDS011;57146;48.140;16.304;2023-03-01T16:10:23;22.48;;;9.43;;
69854;SDS011;57146;48.140;16.304;2023-03-01T16:12:51;24.52;;;9.35;;
69854;SDS011;57146;48.140;16.304;2023-03-01T16:15:42;23.75;;;10.07;;
69854;SDS011;57146;48.140;16.304;2023-03-01T16:18:09;22.70;;;9.90;;
69854;SDS011;57146;48.140;16.304;2023-03-01T16:20:37;21.98;;;9.82;;
69854;SDS011;57146;48.140;16.304;2023-03-01T16:23:06;23.67;;;9.80;;
69854;SDS011;57146;48.140;16.304;2023-03-01T16:25:36;24.33;;;10.35;;
69854;SDS011;57146;48.140;16.304;2023-03-01T16:28:07;23.38;;;9.90;;
69854;SDS011;57146;48.140;16.304;2023-03-01T16:30:45;22.03;;;9.57;;
69854;SDS011;57146;48.140;16.304;2023-03-01T16:33:13;20.13;;;8.70;;
69854;SDS011;57146;48.140;16.304;2023-03-01T16:36:33;23.40;;;9.18;;
69854;SDS011;57146;48.140;16.304;2023-03-01T16:38:53;23.00;;;9.63;;
69854;SDS011;57146;48.140;16.304;2023-03-01T16:41:24;23.83;;;9.60;;
69854;SDS011;57146;48.140;16.304;2023-03-01T16:43:51;23.27;;;10.20;;
69854;SDS011;57146;48.140;16.304;2023-03-01T16:46:19;21.52;;;9.48;;
69854;SDS011;57146;48.140;16.304;2023-03-01T16:49:13;24.80;;;10.50;;
69854;SDS011;57146;48.140;16.304;2023-03-01T16:51:44;24.38;;;9.90;;
69854;SDS011;57146;48.140;16.304;2023-03-01T16:54:11;23.15;;;9.77;;
69854;SDS011;57146;48.140;16.304;2023-03-01T16:56:39;24.33;;;10.33;;
69854;SDS011;57146;48.140;16.304;2023-03-01T16:59:06;23.85;;;10.15;;
69854;SDS011;57146;48.140;16.304;2023-03-01T17:01:33;25.95;;;9.70;;
69854;SDS011;57146;48.140;16.304;2023-03-01T17:04:00;24.48;;;10.27;;
69854;SDS011;57146;48.140;16.304;2023-03-01T17:06:28;23.83;;;9.50;;